Bunch, OK (74931)

10:19 PM CST on December 08, 2016 (GMT -0600)
Sallisaw | | Change Station

Elev 541 ft 35.46 °N, 94.80 °W | Updated 3 minutes ago

Clear
Clear
23.9 °F
Feels Like 24 °F
N
0.0
Wind Variable Wind from North
Gusts 0.0 mph

Today
High -- | Low -- °F
--% Chance of Precip.
Yesterday
High -- | Low -- °F
Precip. -- in
Pressure 30.68 in
Visibility 10.0 miles
Clouds Clear
Windchill 24 °F
Dew Point 13 °F
Humidity 63%
Rainfall 0.00 in
Snow Depth Not available.
7:16 AM 5:05 PM
Waxing Gibbous, 70% visible
METAR KJSV 090355Z AUTO 00000KT 10SM CLR M05/M11 A3068 RMK AO2
Pressure 30.68 in
Visibility 10.0 miles
Clouds Clear
Windchill 24 °F
Dew Point 13 °F
Humidity 63%
Rainfall 0.00 in
Snow Depth Not available.
7:16 AM 5:05 PM
Waxing Gibbous, 70% visible
METAR KJSV 090355Z AUTO 00000KT 10SM CLR M05/M11 A3068 RMK AO2

10-Day Weather Forecast

Almanac

Astronomy

Dec. 08, 2016 Rise Set
Actual Time
Civil Twilight
Nautical Twilight
Astronomical Twilight
Moon
Length of Visible Light
Length of Day
Tomorrow will be .
, % of the Moon is Illuminated

Today's Extremes

State Highs State Lows

Community

WunderPhotos

Upload Photos

1,956,370 photos uploaded!

WunderBlog® & News

Nearby

Air Quality

  Air Quality AQ Index Pollutant
Not available.

Snow Depth

Station Depth Elevation

Earthquake Activity

City Distance Mag. Time & Date
Minimum magnitude displayed is 2.5.

Coastal Water Temperatures

Place Temperature

Stations

Nearby Weather Stations

Station Location Temp. Windchill Dew Point Humidity Wind Precip. Elev Updated Type
                   

Watches & Warnings

There are currently no watches in effect.